Swiftwater, Pennsylvania
Current Conditions -  °F | °C
As of 6:53 PM on Sunday 21 Dec 2014 (Local Time) from KMPO Reporting Station
Overcast Overcast  
Wind Chill: 21°   Ceiling: 1300
Heat Index: 26°   Visibility: 10mi
Dew Point: 20°   Wind: 5mph
Humidity: 78%   Direction: 350°N
Pressure: 30.24"   Gusts: NA
Location:  41.1°N, 75.32°W
Report Text: KMPO 212353Z AUTO 35004KT 10SM OVC013 M03/M07 A3024 RMK AO2 SLP270 T10331067 11028 21039 53012
Loading
Personal Weather Stations






























Interactive Weather Map New forecast layout! Learn more

10-Day Weather Forecast

Advertisements
Track Severe Weather on mobile